Главная страница
METAR-TAF:

METAR-TAF

Аэропорты :

Clearfield-Lawrence Airport

Clearfield, Пенсильвания, США

широта: 41-02-48N, долгота: 078-24-42W, высота над уровнем моря: 462 м

Текущие метеонаблюдения

Эта сводка был подготовлена 33 минут назад, в 09:54 UTC
Штиль
Температура 6°C
Влажность 81%
Давление 1017 hPa
Видимость: 16.1 км
Рассеянная облачность на высоте 3500 фута
Сплошная облачность на высоте 6500 фута

METAR: KFIG 250954Z AUTO 00000KT 10SM BKN035 OVC065 06/03 A3002 RMK AO2 RAB35E49 SLP173 P0000 T00560033 $

Время: 06:27 (10:27 UTC)


TAF: отсутствует

Метеонаблюдения и прогнозы для более 4000 аэропортов (сводки METAR и TAF).

Имеющиеся станции представлены на карте желтыми и красными точками.

Чтобы увидеть название станции, наведите на нее мышь.

Затем щелкните, чтобы увидеть метеонаблюдения и метеопрогнозы.

Управление картой: чтобы увеличить масштаб, щелкните зеленые кнопки с черным крестиком; чтобы уменьшить масштаб, щелкните зеленую кнопку с тире; для просмотра соседних карт щелкайте зеленые стрелки.


METAR-TAF: